sensor_id;sensor_type;location;lat;lon;timestamp;P1;durP1;ratioP1;P2;durP2;ratioP2
43994;SDS011;51687;52.160;5.298;2023-03-04T00:02:06;17.08;;;3.63;;
43994;SDS011;51687;52.160;5.298;2023-03-04T00:04:33;16.60;;;2.88;;
43994;SDS011;51687;52.160;5.298;2023-03-04T00:06:59;13.25;;;2.65;;
43994;SDS011;51687;52.160;5.298;2023-03-04T00:09:26;17.55;;;2.97;;
43994;SDS011;51687;52.160;5.298;2023-03-04T00:11:53;17.80;;;3.00;;
43994;SDS011;51687;52.160;5.298;2023-03-04T00:14:20;16.85;;;2.75;;
43994;SDS011;51687;52.160;5.298;2023-03-04T00:16:47;15.27;;;3.35;;
43994;SDS011;51687;52.160;5.298;2023-03-04T00:19:14;14.68;;;3.00;;
43994;SDS011;51687;52.160;5.298;2023-03-04T00:21:41;10.32;;;2.80;;
43994;SDS011;51687;52.160;5.298;2023-03-04T00:24:08;18.73;;;2.85;;
43994;SDS011;51687;52.160;5.298;2023-03-04T00:26:35;19.50;;;3.33;;
43994;SDS011;51687;52.160;5.298;2023-03-04T00:29:01;21.75;;;3.15;;
43994;SDS011;51687;52.160;5.298;2023-03-04T00:31:29;20.42;;;2.90;;
43994;SDS011;51687;52.160;5.298;2023-03-04T00:33:56;17.73;;;2.75;;
43994;SDS011;51687;52.160;5.298;2023-03-04T00:36:23;15.60;;;1.80;;
43994;SDS011;51687;52.160;5.298;2023-03-04T00:38:50;14.45;;;2.70;;
43994;SDS011;51687;52.160;5.298;2023-03-04T00:41:17;17.02;;;3.28;;
43994;SDS011;51687;52.160;5.298;2023-03-04T00:43:44;10.63;;;2.90;;
43994;SDS011;51687;52.160;5.298;2023-03-04T00:46:10;16.17;;;2.45;;
43994;SDS011;51687;52.160;5.298;2023-03-04T00:48:37;11.30;;;2.72;;
43994;SDS011;51687;52.160;5.298;2023-03-04T00:51:04;13.15;;;2.58;;
43994;SDS011;51687;52.160;5.298;2023-03-04T00:53:32;15.35;;;2.80;;
43994;SDS011;51687;52.160;5.298;2023-03-04T00:55:59;10.52;;;2.38;;
43994;SDS011;51687;52.160;5.298;2023-03-04T00:58:25;14.52;;;2.55;;
43994;SDS011;51687;52.160;5.298;2023-03-04T01:00:52;15.40;;;3.17;;
43994;SDS011;51687;52.160;5.298;2023-03-04T01:03:19;17.95;;;3.08;;
43994;SDS011;51687;52.160;5.298;2023-03-04T01:05:46;12.98;;;2.15;;
43994;SDS011;51687;52.160;5.298;2023-03-04T01:08:12;15.10;;;2.38;;
43994;SDS011;51687;52.160;5.298;2023-03-04T01:10:39;11.02;;;2.72;;
43994;SDS011;51687;52.160;5.298;2023-03-04T01:13:06;12.80;;;2.85;;
43994;SDS011;51687;52.160;5.298;2023-03-04T01:15:34;15.83;;;2.93;;
43994;SDS011;51687;52.160;5.298;2023-03-04T01:18:00;13.43;;;2.78;;
43994;SDS011;51687;52.160;5.298;2023-03-04T01:20:27;14.18;;;3.05;;
43994;SDS011;51687;52.160;5.298;2023-03-04T01:22:54;11.85;;;2.72;;
43994;SDS011;51687;52.160;5.298;2023-03-04T01:25:21;10.38;;;2.33;;
43994;SDS011;51687;52.160;5.298;2023-03-04T01:27:47;9.80;;;2.22;;
43994;SDS011;51687;52.160;5.298;2023-03-04T01:30:14;10.13;;;1.85;;
43994;SDS011;51687;52.160;5.298;2023-03-04T01:32:43;12.35;;;2.30;;
43994;SDS011;51687;52.160;5.298;2023-03-04T01:35:11;14.23;;;2.55;;
43994;SDS011;51687;52.160;5.298;2023-03-04T01:37:38;15.45;;;3.17;;
43994;SDS011;51687;52.160;5.298;2023-03-04T01:40:05;10.68;;;2.63;;
43994;SDS011;51687;52.160;5.298;2023-03-04T01:42:33;13.77;;;2.30;;
43994;SDS011;51687;52.160;5.298;2023-03-04T01:45:01;15.95;;;2.50;;
43994;SDS011;51687;52.160;5.298;2023-03-04T01:47:30;16.10;;;2.90;;
43994;SDS011;51687;52.160;5.298;2023-03-04T01:49:58;12.68;;;2.83;;
43994;SDS011;51687;52.160;5.298;2023-03-04T01:52:32;7.50;;;1.75;;
43994;SDS011;51687;52.160;5.298;2023-03-04T01:54:59;14.75;;;2.72;;
43994;SDS011;51687;52.160;5.298;2023-03-04T01:57:25;13.27;;;3.03;;
43994;SDS011;51687;52.160;5.298;2023-03-04T02:02:47;11.88;;;2.05;;
43994;SDS011;51687;52.160;5.298;2023-03-04T02:05:17;18.58;;;2.45;;
43994;SDS011;51687;52.160;5.298;2023-03-04T02:07:45;10.95;;;2.17;;
43994;SDS011;51687;52.160;5.298;2023-03-04T02:10:12;10.07;;;2.60;;
43994;SDS011;51687;52.160;5.298;2023-03-04T02:12:39;10.88;;;2.03;;
43994;SDS011;51687;52.160;5.298;2023-03-04T02:15:06;10.15;;;2.30;;
43994;SDS011;51687;52.160;5.298;2023-03-04T02:17:33;12.13;;;2.17;;
43994;SDS011;51687;52.160;5.298;2023-03-04T02:20:03;14.32;;;1.95;;
43994;SDS011;51687;52.160;5.298;2023-03-04T02:22:32;16.75;;;2.28;;
43994;SDS011;51687;52.160;5.298;2023-03-04T02:25:12;11.48;;;2.47;;
43994;SDS011;51687;52.160;5.298;2023-03-04T02:27:43;16.02;;;2.20;;
43994;SDS011;51687;52.160;5.298;2023-03-04T02:30:10;14.23;;;2.20;;
43994;SDS011;51687;52.160;5.298;2023-03-04T02:32:41;18.35;;;3.25;;
43994;SDS011;51687;52.160;5.298;2023-03-04T02:35:12;16.73;;;2.83;;
43994;SDS011;51687;52.160;5.298;2023-03-04T02:37:43;10.40;;;3.05;;
43994;SDS011;51687;52.160;5.298;2023-03-04T02:40:20;8.65;;;2.13;;
43994;SDS011;51687;52.160;5.298;2023-03-04T02:42:54;9.65;;;2.13;;
43994;SDS011;51687;52.160;5.298;2023-03-04T02:46:07;12.60;;;2.50;;
43994;SDS011;51687;52.160;5.298;2023-03-04T02:48:16;8.20;;;2.03;;
43994;SDS011;51687;52.160;5.298;2023-03-04T02:50:49;12.57;;;3.45;;
43994;SDS011;51687;52.160;5.298;2023-03-04T02:53:17;8.45;;;2.33;;
43994;SDS011;51687;52.160;5.298;2023-03-04T02:55:46;16.17;;;2.47;;
43994;SDS011;51687;52.160;5.298;2023-03-04T02:58:14;12.43;;;1.90;;
43994;SDS011;51687;52.160;5.298;2023-03-04T03:00:41;12.10;;;2.78;;
43994;SDS011;51687;52.160;5.298;2023-03-04T03:03:08;14.57;;;2.42;;
43994;SDS011;51687;52.160;5.298;2023-03-04T03:05:35;12.82;;;2.10;;
43994;SDS011;51687;52.160;5.298;2023-03-04T03:08:03;9.57;;;2.33;;
43994;SDS011;51687;52.160;5.298;2023-03-04T03:10:30;14.10;;;2.35;;
43994;SDS011;51687;52.160;5.298;2023-03-04T03:12:57;15.18;;;2.38;;
43994;SDS011;51687;52.160;5.298;2023-03-04T03:15:23;18.13;;;2.70;;
43994;SDS011;51687;52.160;5.298;2023-03-04T03:17:50;15.73;;;3.80;;
43994;SDS011;51687;52.160;5.298;2023-03-04T03:20:17;7.90;;;1.95;;
43994;SDS011;51687;52.160;5.298;2023-03-04T03:22:44;10.10;;;2.00;;
43994;SDS011;51687;52.160;5.298;2023-03-04T03:25:13;9.88;;;1.60;;
43994;SDS011;51687;52.160;5.298;2023-03-04T03:27:40;12.82;;;2.05;;
43994;SDS011;51687;52.160;5.298;2023-03-04T03:30:09;10.90;;;1.90;;
43994;SDS011;51687;52.160;5.298;2023-03-04T03:32:41;10.25;;;1.83;;
43994;SDS011;51687;52.160;5.298;2023-03-04T03:35:08;9.15;;;1.85;;
43994;SDS011;51687;52.160;5.298;2023-03-04T03:37:35;12.02;;;2.15;;
43994;SDS011;51687;52.160;5.298;2023-03-04T03:40:02;11.98;;;2.30;;
43994;SDS011;51687;52.160;5.298;2023-03-04T03:42:29;8.70;;;1.90;;
43994;SDS011;51687;52.160;5.298;2023-03-04T03:44:56;7.07;;;1.95;;
43994;SDS011;51687;52.160;5.298;2023-03-04T03:47:23;9.57;;;1.90;;
43994;SDS011;51687;52.160;5.298;2023-03-04T03:49:49;10.10;;;1.67;;
43994;SDS011;51687;52.160;5.298;2023-03-04T03:52:16;8.40;;;1.92;;
43994;SDS011;51687;52.160;5.298;2023-03-04T03:54:43;14.15;;;2.30;;
43994;SDS011;51687;52.160;5.298;2023-03-04T03:57:10;11.85;;;1.73;;
43994;SDS011;51687;52.160;5.298;2023-03-04T03:59:36;9.82;;;2.25;;
43994;SDS011;51687;52.160;5.298;2023-03-04T04:02:03;8.27;;;1.45;;
43994;SDS011;51687;52.160;5.298;2023-03-04T04:04:30;10.98;;;1.52;;
43994;SDS011;51687;52.160;5.298;2023-03-04T04:06:57;9.95;;;2.00;;
43994;SDS011;51687;52.160;5.298;2023-03-04T04:09:24;6.78;;;1.42;;
43994;SDS011;51687;52.160;5.298;2023-03-04T04:11:51;11.48;;;2.00;;
43994;SDS011;51687;52.160;5.298;2023-03-04T04:14:18;11.13;;;2.42;;
43994;SDS011;51687;52.160;5.298;2023-03-04T04:16:44;10.70;;;2.00;;
43994;SDS011;51687;52.160;5.298;2023-03-04T04:19:18;5.45;;;1.75;;
43994;SDS011;51687;52.160;5.298;2023-03-04T04:21:45;7.05;;;1.30;;
43994;SDS011;51687;52.160;5.298;2023-03-04T04:24:14;12.35;;;1.60;;
43994;SDS011;51687;52.160;5.298;2023-03-04T04:26:41;10.55;;;2.17;;
43994;SDS011;51687;52.160;5.298;2023-03-04T04:29:08;6.55;;;1.80;;
43994;SDS011;51687;52.160;5.298;2023-03-04T04:31:38;6.40;;;1.42;;
43994;SDS011;51687;52.160;5.298;2023-03-04T04:34:05;8.60;;;1.88;;
43994;SDS011;51687;52.160;5.298;2023-03-04T04:36:32;7.40;;;1.58;;
43994;SDS011;51687;52.160;5.298;2023-03-04T04:38:58;5.78;;;1.45;;
43994;SDS011;51687;52.160;5.298;2023-03-04T04:41:26;5.47;;;1.38;;
43994;SDS011;51687;52.160;5.298;2023-03-04T04:43:56;9.05;;;1.50;;
43994;SDS011;51687;52.160;5.298;2023-03-04T04:46:24;5.95;;;1.75;;
43994;SDS011;51687;52.160;5.298;2023-03-04T04:48:51;9.27;;;1.67;;
43994;SDS011;51687;52.160;5.298;2023-03-04T04:51:18;7.47;;;1.33;;
43994;SDS011;51687;52.160;5.298;2023-03-04T04:53:45;10.18;;;2.13;;
43994;SDS011;51687;52.160;5.298;2023-03-04T04:56:13;9.60;;;1.98;;
43994;SDS011;51687;52.160;5.298;2023-03-04T04:58:45;7.75;;;2.03;;
43994;SDS011;51687;52.160;5.298;2023-03-04T05:01:12;14.23;;;2.92;;
43994;SDS011;51687;52.160;5.298;2023-03-04T05:03:39;7.60;;;1.42;;
43994;SDS011;51687;52.160;5.298;2023-03-04T05:06:07;9.82;;;1.50;;
43994;SDS011;51687;52.160;5.298;2023-03-04T05:08:35;4.93;;;1.48;;
43994;SDS011;51687;52.160;5.298;2023-03-04T05:11:04;8.63;;;1.80;;
43994;SDS011;51687;52.160;5.298;2023-03-04T05:13:32;9.07;;;2.03;;
43994;SDS011;51687;52.160;5.298;2023-03-04T05:15:59;10.30;;;1.73;;
43994;SDS011;51687;52.160;5.298;2023-03-04T05:18:27;5.75;;;1.98;;
43994;SDS011;51687;52.160;5.298;2023-03-04T05:20:55;10.88;;;1.80;;
43994;SDS011;51687;52.160;5.298;2023-03-04T05:25:50;8.65;;;1.65;;
43994;SDS011;51687;52.160;5.298;2023-03-04T05:28:17;5.38;;;1.15;;
43994;SDS011;51687;52.160;5.298;2023-03-04T05:30:46;12.45;;;1.80;;
43994;SDS011;51687;52.160;5.298;2023-03-04T05:33:14;8.38;;;1.60;;
43994;SDS011;51687;52.160;5.298;2023-03-04T05:35:42;9.32;;;1.95;;
43994;SDS011;51687;52.160;5.298;2023-03-04T05:38:10;9.60;;;1.98;;
43994;SDS011;51687;52.160;5.298;2023-03-04T05:43:05;12.10;;;1.98;;
43994;SDS011;51687;52.160;5.298;2023-03-04T05:45:32;16.80;;;2.15;;
43994;SDS011;51687;52.160;5.298;2023-03-04T05:48:02;15.77;;;2.30;;
43994;SDS011;51687;52.160;5.298;2023-03-04T05:50:30;13.20;;;1.77;;
43994;SDS011;51687;52.160;5.298;2023-03-04T05:52:57;10.82;;;2.17;;
43994;SDS011;51687;52.160;5.298;2023-03-04T05:55:24;10.75;;;1.40;;
43994;SDS011;51687;52.160;5.298;2023-03-04T06:00:20;10.07;;;2.20;;
43994;SDS011;51687;52.160;5.298;2023-03-04T06:02:47;12.15;;;2.13;;
43994;SDS011;51687;52.160;5.298;2023-03-04T06:05:14;7.20;;;1.58;;
43994;SDS011;51687;52.160;5.298;2023-03-04T06:07:42;9.30;;;2.25;;
43994;SDS011;51687;52.160;5.298;2023-03-04T06:10:13;12.48;;;2.45;;
43994;SDS011;51687;52.160;5.298;2023-03-04T06:12:42;10.85;;;1.60;;
43994;SDS011;51687;52.160;5.298;2023-03-04T06:15:09;12.18;;;1.83;;
43994;SDS011;51687;52.160;5.298;2023-03-04T06:17:37;8.00;;;1.92;;
43994;SDS011;51687;52.160;5.298;2023-03-04T06:20:07;12.18;;;2.17;;
43994;SDS011;51687;52.160;5.298;2023-03-04T06:22:35;12.80;;;2.17;;
43994;SDS011;51687;52.160;5.298;2023-03-04T06:25:03;10.52;;;1.90;;
43994;SDS011;51687;52.160;5.298;2023-03-04T06:27:30;8.43;;;2.63;;
43994;SDS011;51687;52.160;5.298;2023-03-04T06:29:57;10.02;;;1.65;;
43994;SDS011;51687;52.160;5.298;2023-03-04T06:32:24;8.35;;;1.80;;
43994;SDS011;51687;52.160;5.298;2023-03-04T06:34:51;14.43;;;2.08;;
43994;SDS011;51687;52.160;5.298;2023-03-04T06:37:18;9.98;;;2.00;;
43994;SDS011;51687;52.160;5.298;2023-03-04T06:39:45;6.63;;;1.88;;
43994;SDS011;51687;52.160;5.298;2023-03-04T06:42:13;9.23;;;2.38;;
43994;SDS011;51687;52.160;5.298;2023-03-04T06:44:41;9.68;;;2.00;;
43994;SDS011;51687;52.160;5.298;2023-03-04T06:47:07;5.57;;;1.38;;
43994;SDS011;51687;52.160;5.298;2023-03-04T06:49:34;11.68;;;2.17;;
43994;SDS011;51687;52.160;5.298;2023-03-04T06:52:01;8.13;;;1.58;;
43994;SDS011;51687;52.160;5.298;2023-03-04T06:54:28;10.57;;;1.63;;
43994;SDS011;51687;52.160;5.298;2023-03-04T06:56:55;7.20;;;1.70;;
43994;SDS011;51687;52.160;5.298;2023-03-04T06:59:21;10.68;;;2.13;;
43994;SDS011;51687;52.160;5.298;2023-03-04T07:01:48;8.82;;;1.45;;
43994;SDS011;51687;52.160;5.298;2023-03-04T07:04:15;7.78;;;2.53;;
43994;SDS011;51687;52.160;5.298;2023-03-04T07:06:42;7.82;;;1.77;;
43994;SDS011;51687;52.160;5.298;2023-03-04T07:09:08;7.00;;;1.50;;
43994;SDS011;51687;52.160;5.298;2023-03-04T07:11:35;6.32;;;1.20;;
43994;SDS011;51687;52.160;5.298;2023-03-04T07:14:02;6.85;;;1.45;;
43994;SDS011;51687;52.160;5.298;2023-03-04T07:16:29;8.82;;;1.83;;
43994;SDS011;51687;52.160;5.298;2023-03-04T07:18:56;6.78;;;1.35;;
43994;SDS011;51687;52.160;5.298;2023-03-04T07:21:22;8.35;;;1.17;;
43994;SDS011;51687;52.160;5.298;2023-03-04T07:23:49;8.63;;;1.40;;
43994;SDS011;51687;52.160;5.298;2023-03-04T07:26:16;6.35;;;1.80;;
43994;SDS011;51687;52.160;5.298;2023-03-04T07:28:43;8.00;;;1.65;;
43994;SDS011;51687;52.160;5.298;2023-03-04T07:33:56;7.28;;;1.73;;
43994;SDS011;51687;52.160;5.298;2023-03-04T07:36:30;7.13;;;1.50;;
43994;SDS011;51687;52.160;5.298;2023-03-04T07:38:58;6.77;;;1.33;;
43994;SDS011;51687;52.160;5.298;2023-03-04T07:41:26;9.23;;;1.75;;
43994;SDS011;51687;52.160;5.298;2023-03-04T07:43:54;6.10;;;1.80;;
43994;SDS011;51687;52.160;5.298;2023-03-04T07:46:22;5.95;;;1.38;;
43994;SDS011;51687;52.160;5.298;2023-03-04T07:48:49;9.63;;;1.42;;
43994;SDS011;51687;52.160;5.298;2023-03-04T07:51:20;4.80;;;1.38;;
43994;SDS011;51687;52.160;5.298;2023-03-04T07:53:49;5.90;;;1.35;;
43994;SDS011;51687;52.160;5.298;2023-03-04T07:56:18;9.57;;;1.40;;
43994;SDS011;51687;52.160;5.298;2023-03-04T07:58:47;5.20;;;1.30;;
43994;SDS011;51687;52.160;5.298;2023-03-04T08:01:15;3.03;;;1.02;;
43994;SDS011;51687;52.160;5.298;2023-03-04T08:03:45;3.22;;;1.00;;
43994;SDS011;51687;52.160;5.298;2023-03-04T08:06:13;5.10;;;1.33;;
43994;SDS011;51687;52.160;5.298;2023-03-04T08:08:41;5.80;;;1.10;;
43994;SDS011;51687;52.160;5.298;2023-03-04T08:11:10;7.20;;;1.30;;
43994;SDS011;51687;52.160;5.298;2023-03-04T08:13:41;4.20;;;1.00;;
43994;SDS011;51687;52.160;5.298;2023-03-04T08:16:09;3.90;;;0.90;;
43994;SDS011;51687;52.160;5.298;2023-03-04T08:18:38;5.60;;;0.90;;
43994;SDS011;51687;52.160;5.298;2023-03-04T08:21:09;5.15;;;1.05;;
43994;SDS011;51687;52.160;5.298;2023-03-04T08:23:37;6.68;;;0.90;;
43994;SDS011;51687;52.160;5.298;2023-03-04T08:26:10;2.20;;;0.82;;
43994;SDS011;51687;52.160;5.298;2023-03-04T08:28:40;6.20;;;1.23;;
43994;SDS011;51687;52.160;5.298;2023-03-04T08:31:07;3.78;;;0.90;;
43994;SDS011;51687;52.160;5.298;2023-03-04T08:33:35;4.82;;;1.00;;
43994;SDS011;51687;52.160;5.298;2023-03-04T08:36:02;4.63;;;0.95;;
43994;SDS011;51687;52.160;5.298;2023-03-04T08:38:29;4.82;;;0.93;;
43994;SDS011;51687;52.160;5.298;2023-03-04T08:40:57;4.80;;;1.00;;
43994;SDS011;51687;52.160;5.298;2023-03-04T08:43:24;3.03;;;0.93;;
43994;SDS011;51687;52.160;5.298;2023-03-04T08:45:52;3.38;;;0.88;;
43994;SDS011;51687;52.160;5.298;2023-03-04T08:48:20;2.75;;;0.82;;
43994;SDS011;51687;52.160;5.298;2023-03-04T08:50:50;3.65;;;1.00;;
43994;SDS011;51687;52.160;5.298;2023-03-04T08:53:17;2.88;;;1.00;;
43994;SDS011;51687;52.160;5.298;2023-03-04T08:55:45;3.25;;;1.00;;
43994;SDS011;51687;52.160;5.298;2023-03-04T08:58:12;4.32;;;1.20;;
43994;SDS011;51687;52.160;5.298;2023-03-04T09:00:40;6.43;;;1.13;;
43994;SDS011;51687;52.160;5.298;2023-03-04T09:03:10;3.58;;;1.00;;
43994;SDS011;51687;52.160;5.298;2023-03-04T09:05:38;2.78;;;0.90;;
43994;SDS011;51687;52.160;5.298;2023-03-04T09:08:05;2.35;;;0.73;;
43994;SDS011;51687;52.160;5.298;2023-03-04T09:10:32;3.72;;;0.80;;
43994;SDS011;51687;52.160;5.298;2023-03-04T09:12:59;2.65;;;0.82;;
43994;SDS011;51687;52.160;5.298;2023-03-04T09:15:27;3.10;;;1.15;;
43994;SDS011;51687;52.160;5.298;2023-03-04T09:17:54;2.88;;;1.00;;
43994;SDS011;51687;52.160;5.298;2023-03-04T09:20:21;3.42;;;0.80;;
43994;SDS011;51687;52.160;5.298;2023-03-04T09:22:48;2.10;;;0.90;;
43994;SDS011;51687;52.160;5.298;2023-03-04T09:25:15;3.22;;;0.82;;
43994;SDS011;51687;52.160;5.298;2023-03-04T09:27:43;4.25;;;0.95;;
43994;SDS011;51687;52.160;5.298;2023-03-04T09:30:10;4.87;;;0.90;;
43994;SDS011;51687;52.160;5.298;2023-03-04T09:32:37;3.75;;;0.80;;
43994;SDS011;51687;52.160;5.298;2023-03-04T09:35:04;1.67;;;0.60;;
43994;SDS011;51687;52.160;5.298;2023-03-04T09:37:32;5.13;;;0.93;;
43994;SDS011;51687;52.160;5.298;2023-03-04T09:39:59;5.20;;;0.80;;
43994;SDS011;51687;52.160;5.298;2023-03-04T09:42:27;2.50;;;0.90;;
43994;SDS011;51687;52.160;5.298;2023-03-04T09:44:59;2.90;;;1.00;;
43994;SDS011;51687;52.160;5.298;2023-03-04T09:47:28;2.20;;;0.70;;
43994;SDS011;51687;52.160;5.298;2023-03-04T09:49:57;3.88;;;0.90;;
43994;SDS011;51687;52.160;5.298;2023-03-04T10:00:37;2.83;;;0.88;;
43994;SDS011;51687;52.160;5.298;2023-03-04T10:03:19;2.63;;;0.65;;
43994;SDS011;51687;52.160;5.298;2023-03-04T10:06:05;2.28;;;0.88;;
43994;SDS011;51687;52.160;5.298;2023-03-04T10:08:48;2.83;;;1.02;;
43994;SDS011;51687;52.160;5.298;2023-03-04T10:11:34;2.30;;;0.80;;
43994;SDS011;51687;52.160;5.298;2023-03-04T10:16:42;3.90;;;0.90;;
43994;SDS011;51687;52.160;5.298;2023-03-04T10:19:18;1.88;;;0.73;;
43994;SDS011;51687;52.160;5.298;2023-03-04T10:21:50;3.45;;;1.45;;
43994;SDS011;51687;52.160;5.298;2023-03-04T10:24:19;2.65;;;0.93;;
43994;SDS011;51687;52.160;5.298;2023-03-04T10:26:49;4.68;;;1.10;;
43994;SDS011;51687;52.160;5.298;2023-03-04T10:29:19;3.60;;;0.90;;
43994;SDS011;51687;52.160;5.298;2023-03-04T10:31:49;3.95;;;1.35;;
43994;SDS011;51687;52.160;5.298;2023-03-04T10:34:17;2.30;;;0.93;;
43994;SDS011;51687;52.160;5.298;2023-03-04T10:39:42;3.55;;;0.88;;
43994;SDS011;51687;52.160;5.298;2023-03-04T10:44:42;3.30;;;0.90;;
43994;SDS011;51687;52.160;5.298;2023-03-04T10:47:16;2.22;;;0.73;;
43994;SDS011;51687;52.160;5.298;2023-03-04T10:49:52;2.25;;;0.65;;
43994;SDS011;51687;52.160;5.298;2023-03-04T10:52:34;2.05;;;0.55;;
43994;SDS011;51687;52.160;5.298;2023-03-04T10:55:13;2.10;;;0.45;;
43994;SDS011;51687;52.160;5.298;2023-03-04T10:57:43;1.48;;;0.50;;
43994;SDS011;51687;52.160;5.298;2023-03-04T11:02:46;3.15;;;0.90;;
43994;SDS011;51687;52.160;5.298;2023-03-04T11:07:52;3.38;;;0.68;;
43994;SDS011;51687;52.160;5.298;2023-03-04T11:10:27;2.10;;;0.55;;
43994;SDS011;51687;52.160;5.298;2023-03-04T11:12:55;1.77;;;0.60;;
43994;SDS011;51687;52.160;5.298;2023-03-04T11:21:12;2.28;;;0.80;;
43994;SDS011;51687;52.160;5.298;2023-03-04T11:26:13;4.35;;;1.00;;
43994;SDS011;51687;52.160;5.298;2023-03-04T11:31:12;4.78;;;1.15;;
43994;SDS011;51687;52.160;5.298;2023-03-04T11:33:46;5.60;;;1.30;;
43994;SDS011;51687;52.160;5.298;2023-03-04T11:38:46;4.72;;;1.42;;
43994;SDS011;51687;52.160;5.298;2023-03-04T11:41:19;4.15;;;1.25;;
43994;SDS011;51687;52.160;5.298;2023-03-04T11:43:48;4.05;;;1.30;;
43994;SDS011;51687;52.160;5.298;2023-03-04T11:46:31;5.13;;;1.63;;
43994;SDS011;51687;52.160;5.298;2023-03-04T11:49:53;10.60;;;1.83;;
43994;SDS011;51687;52.160;5.298;2023-03-04T11:52:22;4.68;;;1.20;;
43994;SDS011;51687;52.160;5.298;2023-03-04T11:55:05;5.38;;;1.30;;
43994;SDS011;51687;52.160;5.298;2023-03-04T11:57:56;5.93;;;1.38;;
43994;SDS011;51687;52.160;5.298;2023-03-04T12:08:29;5.70;;;1.08;;
43994;SDS011;51687;52.160;5.298;2023-03-04T12:11:21;2.92;;;1.10;;
43994;SDS011;51687;52.160;5.298;2023-03-04T12:13:57;4.80;;;1.08;;
43994;SDS011;51687;52.160;5.298;2023-03-04T12:16:49;5.50;;;1.20;;
43994;SDS011;51687;52.160;5.298;2023-03-04T12:19:45;5.80;;;1.83;;
43994;SDS011;51687;52.160;5.298;2023-03-04T12:22:20;7.78;;;1.90;;
43994;SDS011;51687;52.160;5.298;2023-03-04T12:24:57;7.85;;;2.15;;
43994;SDS011;51687;52.160;5.298;2023-03-04T12:33:21;10.35;;;1.55;;
43994;SDS011;51687;52.160;5.298;2023-03-04T12:36:25;9.43;;;1.92;;
43994;SDS011;51687;52.160;5.298;2023-03-04T12:45:21;7.35;;;1.70;;
43994;SDS011;51687;52.160;5.298;2023-03-04T12:48:05;8.23;;;1.75;;
43994;SDS011;51687;52.160;5.298;2023-03-04T12:53:53;14.50;;;2.97;;
43994;SDS011;51687;52.160;5.298;2023-03-04T12:59:20;13.05;;;2.05;;
43994;SDS011;51687;52.160;5.298;2023-03-04T13:07:06;12.05;;;2.80;;
43994;SDS011;51687;52.160;5.298;2023-03-04T13:12:18;12.23;;;2.90;;
43994;SDS011;51687;52.160;5.298;2023-03-04T13:15:31;11.13;;;2.33;;
43994;SDS011;51687;52.160;5.298;2023-03-04T13:17:51;8.27;;;2.10;;
43994;SDS011;51687;52.160;5.298;2023-03-04T13:20:21;7.93;;;2.08;;
43994;SDS011;51687;52.160;5.298;2023-03-04T13:25:29;8.77;;;1.90;;
43994;SDS011;51687;52.160;5.298;2023-03-04T13:35:48;10.85;;;2.20;;
43994;SDS011;51687;52.160;5.298;2023-03-04T13:38:23;13.02;;;2.70;;
43994;SDS011;51687;52.160;5.298;2023-03-04T13:44:02;10.32;;;2.30;;
43994;SDS011;51687;52.160;5.298;2023-03-04T13:47:19;8.13;;;2.25;;
43994;SDS011;51687;52.160;5.298;2023-03-04T13:49:48;8.30;;;2.58;;
43994;SDS011;51687;52.160;5.298;2023-03-04T13:55:32;9.75;;;1.85;;
43994;SDS011;51687;52.160;5.298;2023-03-04T13:58:22;8.93;;;1.95;;
43994;SDS011;51687;52.160;5.298;2023-03-04T14:00:52;10.82;;;2.83;;
43994;SDS011;51687;52.160;5.298;2023-03-04T14:03:22;5.55;;;1.70;;
43994;SDS011;51687;52.160;5.298;2023-03-04T14:08:57;6.03;;;1.40;;
43994;SDS011;51687;52.160;5.298;2023-03-04T14:11:32;8.77;;;1.73;;
43994;SDS011;51687;52.160;5.298;2023-03-04T14:14:04;8.73;;;1.90;;
43994;SDS011;51687;52.160;5.298;2023-03-04T14:16:37;7.70;;;1.50;;
43994;SDS011;51687;52.160;5.298;2023-03-04T14:19:11;3.58;;;1.17;;
43994;SDS011;51687;52.160;5.298;2023-03-04T14:21:45;6.63;;;1.35;;
43994;SDS011;51687;52.160;5.298;2023-03-04T14:24:14;8.07;;;1.17;;
43994;SDS011;51687;52.160;5.298;2023-03-04T14:26:43;5.05;;;1.23;;
43994;SDS011;51687;52.160;5.298;2023-03-04T14:31:50;6.93;;;1.23;;
43994;SDS011;51687;52.160;5.298;2023-03-04T14:36:50;4.82;;;1.52;;
43994;SDS011;51687;52.160;5.298;2023-03-04T14:39:18;5.27;;;1.37;;
43994;SDS011;51687;52.160;5.298;2023-03-04T14:41:47;7.50;;;1.77;;
43994;SDS011;51687;52.160;5.298;2023-03-04T14:44:22;3.30;;;1.00;;
43994;SDS011;51687;52.160;5.298;2023-03-04T14:46:58;2.58;;;0.80;;
43994;SDS011;51687;52.160;5.298;2023-03-04T14:49:45;5.05;;;1.25;;
43994;SDS011;51687;52.160;5.298;2023-03-04T14:55:24;5.20;;;1.15;;
43994;SDS011;51687;52.160;5.298;2023-03-04T14:58:04;5.90;;;1.00;;
43994;SDS011;51687;52.160;5.298;2023-03-04T15:01:05;4.25;;;0.90;;
43994;SDS011;51687;52.160;5.298;2023-03-04T15:03:39;5.90;;;1.13;;
43994;SDS011;51687;52.160;5.298;2023-03-04T15:06:30;5.30;;;0.93;;
43994;SDS011;51687;52.160;5.298;2023-03-04T15:25:11;3.58;;;0.82;;
43994;SDS011;51687;52.160;5.298;2023-03-04T15:27:46;4.07;;;1.00;;
43994;SDS011;51687;52.160;5.298;2023-03-04T15:30:14;6.15;;;0.80;;
43994;SDS011;51687;52.160;5.298;2023-03-04T15:32:46;6.43;;;1.10;;
43994;SDS011;51687;52.160;5.298;2023-03-04T15:35:14;3.15;;;0.73;;
43994;SDS011;51687;52.160;5.298;2023-03-04T15:40:23;5.78;;;1.08;;
43994;SDS011;51687;52.160;5.298;2023-03-04T15:42:58;5.32;;;1.00;;
43994;SDS011;51687;52.160;5.298;2023-03-04T15:45:28;5.38;;;1.70;;
43994;SDS011;51687;52.160;5.298;2023-03-04T15:47:57;4.30;;;1.30;;
43994;SDS011;51687;52.160;5.298;2023-03-04T15:50:26;5.00;;;1.30;;
43994;SDS011;51687;52.160;5.298;2023-03-04T15:52:58;4.72;;;1.38;;
43994;SDS011;51687;52.160;5.298;2023-03-04T15:55:27;5.32;;;1.55;;
43994;SDS011;51687;52.160;5.298;2023-03-04T15:57:56;3.58;;;1.05;;
43994;SDS011;51687;52.160;5.298;2023-03-04T16:00:25;7.10;;;1.50;;
43994;SDS011;51687;52.160;5.298;2023-03-04T16:02:52;6.35;;;1.48;;
43994;SDS011;51687;52.160;5.298;2023-03-04T16:05:19;7.53;;;2.13;;
43994;SDS011;51687;52.160;5.298;2023-03-04T16:07:47;4.80;;;1.50;;
43994;SDS011;51687;52.160;5.298;2023-03-04T16:10:25;3.47;;;1.15;;
43994;SDS011;51687;52.160;5.298;2023-03-04T16:12:55;4.43;;;2.33;;
43994;SDS011;51687;52.160;5.298;2023-03-04T16:15:23;3.95;;;1.20;;
43994;SDS011;51687;52.160;5.298;2023-03-04T16:17:52;5.57;;;1.45;;
43994;SDS011;51687;52.160;5.298;2023-03-04T16:20:20;7.22;;;1.73;;
43994;SDS011;51687;52.160;5.298;2023-03-04T16:22:50;7.40;;;1.65;;
43994;SDS011;51687;52.160;5.298;2023-03-04T16:25:19;3.90;;;1.27;;
43994;SDS011;51687;52.160;5.298;2023-03-04T16:27:47;7.20;;;2.00;;
43994;SDS011;51687;52.160;5.298;2023-03-04T16:30:19;7.63;;;1.98;;
43994;SDS011;51687;52.160;5.298;2023-03-04T16:32:48;6.57;;;1.83;;
43994;SDS011;51687;52.160;5.298;2023-03-04T16:35:15;7.80;;;2.10;;
43994;SDS011;51687;52.160;5.298;2023-03-04T16:37:42;4.03;;;1.38;;
43994;SDS011;51687;52.160;5.298;2023-03-04T16:40:11;6.00;;;1.77;;
43994;SDS011;51687;52.160;5.298;2023-03-04T16:42:40;6.43;;;1.80;;
43994;SDS011;51687;52.160;5.298;2023-03-04T16:45:14;9.75;;;2.30;;
43994;SDS011;51687;52.160;5.298;2023-03-04T16:47:43;6.07;;;1.92;;
43994;SDS011;51687;52.160;5.298;2023-03-04T16:50:17;6.50;;;2.00;;
43994;SDS011;51687;52.160;5.298;2023-03-04T16:52:48;6.40;;;2.50;;
43994;SDS011;51687;52.160;5.298;2023-03-04T16:55:17;6.30;;;2.05;;
43994;SDS011;51687;52.160;5.298;2023-03-04T16:57:45;7.55;;;1.90;;
43994;SDS011;51687;52.160;5.298;2023-03-04T17:00:14;6.57;;;2.10;;
43994;SDS011;51687;52.160;5.298;2023-03-04T17:02:43;6.38;;;2.15;;
43994;SDS011;51687;52.160;5.298;2023-03-04T17:07:43;9.55;;;2.20;;
43994;SDS011;51687;52.160;5.298;2023-03-04T17:10:09;9.68;;;2.55;;
43994;SDS011;51687;52.160;5.298;2023-03-04T17:12:37;11.17;;;2.93;;